Time;durP1;ratioP1;P1;durP2;ratioP2;P2;SDS_P1;SDS_P2;PMS_P1;PMS_P2;Temp;Humidity;BMP_temperature;BMP_pressure;BME280_temperature;BME280_humidity;BME280_pressure;Samples;Min_cycle;Max_cycle;Signal;HPM_P1;HPM_P2
2024/03/14 00:00:18;;;;;;;4.85;2.95;;;;;;;;;;4953565;28;20078;-84
2024/03/14 00:03:04;;;;;;;3.95;2.80;;;;;;;;;;4953147;28;20057;-84
2024/03/14 00:05:50;;;;;;;5.45;3.03;;;;;;;;;;4953168;28;20026;-84
2024/03/14 00:08:35;;;;;;;6.10;3.08;;;;;;;;;;4952009;28;20035;-84
2024/03/14 00:11:21;;;;;;;4.50;3.30;;;;;;;;;;4953127;28;20038;-84
2024/03/14 00:14:06;;;;;;;7.03;3.03;;;;;;;;;;4949306;28;20030;-85
2024/03/14 00:16:52;;;;;;;6.78;2.97;;;;;;;;;;4952708;28;20137;-84
2024/03/14 00:19:40;;;;;;;5.65;2.90;;;;;;;;;;4951573;28;20039;-84
2024/03/14 00:22:25;;;;;;;5.68;2.80;;;;;;;;;;4958359;28;20050;-82
2024/03/14 00:25:10;;;;;;;5.18;2.97;;;;;;;;;;4954624;28;20113;-82
2024/03/14 00:27:55;;;;;;;6.47;3.28;;;;;;;;;;4957885;28;20101;-83
2024/03/14 00:30:41;;;;;;;5.43;3.35;;;;;;;;;;4957013;28;20033;-83
2024/03/14 00:33:26;;;;;;;5.05;2.78;;;;;;;;;;4957777;28;20022;-84
2024/03/14 00:36:14;;;;;;;5.80;3.17;;;;;;;;;;4957095;28;20052;-84
2024/03/14 00:38:59;;;;;;;6.05;3.28;;;;;;;;;;4956055;28;20023;-82
2024/03/14 00:41:45;;;;;;;7.28;3.72;;;;;;;;;;4957503;28;20030;-83
2024/03/14 00:44:30;;;;;;;10.25;3.80;;;;;;;;;;4957368;28;20023;-84
2024/03/14 00:47:15;;;;;;;6.47;3.10;;;;;;;;;;4965442;28;20117;-84
2024/03/14 00:50:01;;;;;;;7.63;3.08;;;;;;;;;;4970979;28;20050;-83
2024/03/14 00:52:46;;;;;;;10.35;3.65;;;;;;;;;;4965632;28;20030;-84
2024/03/14 00:55:32;;;;;;;6.28;3.53;;;;;;;;;;4963900;28;20029;-83
2024/03/14 00:58:17;;;;;;;7.65;3.20;;;;;;;;;;4953878;28;20106;-84
2024/03/14 01:01:02;;;;;;;8.93;3.80;;;;;;;;;;4957002;28;20031;-83
2024/03/14 01:03:48;;;;;;;6.43;3.35;;;;;;;;;;4955343;28;20458;-83
2024/03/14 01:06:33;;;;;;;5.88;3.78;;;;;;;;;;4956640;28;20109;-83
2024/03/14 01:09:24;;;;;;;7.00;3.72;;;;;;;;;;4954565;28;20042;-82
2024/03/14 01:12:10;;;;;;;5.85;3.65;;;;;;;;;;4956556;28;20053;-83
2024/03/14 01:14:55;;;;;;;8.02;3.70;;;;;;;;;;4968127;28;20049;-82
2024/03/14 01:17:41;;;;;;;11.25;4.13;;;;;;;;;;4956792;28;20065;-83
2024/03/14 01:20:29;;;;;;;12.88;4.95;;;;;;;;;;4955633;28;20030;-83
2024/03/14 01:23:16;;;;;;;11.15;3.97;;;;;;;;;;4956586;28;20038;-84
2024/03/14 01:26:01;;;;;;;11.27;4.55;;;;;;;;;;4956641;28;20038;-83
2024/03/14 01:28:46;;;;;;;8.50;3.83;;;;;;;;;;4953300;28;20500;-81
2024/03/14 01:31:32;;;;;;;7.20;4.13;;;;;;;;;;4954220;28;20117;-83
2024/03/14 01:34:18;;;;;;;8.55;4.38;;;;;;;;;;4956486;28;20545;-84
2024/03/14 01:37:06;;;;;;;9.20;3.92;;;;;;;;;;4967845;28;20058;-84
2024/03/14 01:39:53;;;;;;;10.80;5.05;;;;;;;;;;4985311;28;20030;-84
2024/03/14 01:42:39;;;;;;;10.90;5.50;;;;;;;;;;4956547;28;20047;-85
2024/03/14 01:45:25;;;;;;;8.30;4.22;;;;;;;;;;4961908;28;20027;-86
2024/03/14 01:48:10;;;;;;;10.90;4.68;;;;;;;;;;4955344;28;20023;-84
2024/03/14 01:50:55;;;;;;;9.55;4.43;;;;;;;;;;4952801;28;20038;-84
2024/03/14 01:53:40;;;;;;;7.05;3.83;;;;;;;;;;4949070;28;20163;-84
2024/03/14 01:56:26;;;;;;;7.13;4.15;;;;;;;;;;4955314;28;20031;-84
2024/03/14 01:59:13;;;;;;;8.15;3.83;;;;;;;;;;4956408;28;20026;-83
2024/03/14 02:01:58;;;;;;;9.82;3.75;;;;;;;;;;4969441;28;20065;-84
2024/03/14 02:04:53;;;;;;;10.90;3.78;;;;;;;;;;4956625;28;20050;-84
2024/03/14 02:07:40;;;;;;;7.60;3.83;;;;;;;;;;4969173;28;20042;-83
2024/03/14 02:10:25;;;;;;;9.07;4.28;;;;;;;;;;4957614;28;20394;-83
2024/03/14 02:13:10;;;;;;;7.22;3.60;;;;;;;;;;4949473;28;20027;-83
2024/03/14 02:15:56;;;;;;;6.15;4.35;;;;;;;;;;4954466;28;20043;-84
2024/03/14 02:18:42;;;;;;;6.95;3.80;;;;;;;;;;4953750;28;20073;-83
2024/03/14 02:21:27;;;;;;;8.98;4.60;;;;;;;;;;4970262;28;20437;-84
2024/03/14 02:24:13;;;;;;;7.65;4.03;;;;;;;;;;4955018;28;20027;-83
2024/03/14 02:27:03;;;;;;;9.65;4.30;;;;;;;;;;4954904;28;20110;-83
2024/03/14 02:29:48;;;;;;;9.95;3.97;;;;;;;;;;4952636;28;20038;-83
2024/03/14 02:32:34;;;;;;;8.57;4.20;;;;;;;;;;4954098;28;20093;-83
2024/03/14 02:35:19;;;;;;;8.13;4.10;;;;;;;;;;4949502;28;20560;-82
2024/03/14 02:38:04;;;;;;;9.00;5.15;;;;;;;;;;4951779;28;20046;-82
2024/03/14 02:40:50;;;;;;;6.55;4.28;;;;;;;;;;4950356;28;20118;-82
2024/03/14 02:43:36;;;;;;;6.75;4.70;;;;;;;;;;4954708;28;20049;-83
2024/03/14 02:46:21;;;;;;;8.18;4.88;;;;;;;;;;4953653;28;20130;-82
2024/03/14 02:49:06;;;;;;;10.65;4.28;;;;;;;;;;4949748;28;20034;-83
2024/03/14 02:51:52;;;;;;;10.10;4.53;;;;;;;;;;4951796;28;20031;-82
2024/03/14 02:54:37;;;;;;;7.60;4.10;;;;;;;;;;4953857;28;20125;-81
2024/03/14 02:57:22;;;;;;;5.55;3.75;;;;;;;;;;4964650;28;20006;-82
2024/03/14 03:00:15;;;;;;;5.97;4.22;;;;;;;;;;4978145;28;20018;-84
2024/03/14 03:03:01;;;;;;;6.32;4.00;;;;;;;;;;4981320;28;20116;-83
2024/03/14 03:05:49;;;;;;;6.72;3.97;;;;;;;;;;4981867;28;20039;-80
2024/03/14 03:08:34;;;;;;;7.22;4.22;;;;;;;;;;4980195;28;20058;-83
2024/03/14 03:11:19;;;;;;;7.38;4.78;;;;;;;;;;4979302;28;20046;-83
2024/03/14 03:14:05;;;;;;;7.88;4.00;;;;;;;;;;4969066;28;20088;-82
2024/03/14 03:16:51;;;;;;;6.68;3.97;;;;;;;;;;4958017;28;20116;-82
2024/03/14 03:19:36;;;;;;;5.65;3.92;;;;;;;;;;4957787;28;20026;-82
2024/03/14 03:22:27;;;;;;;6.57;4.22;;;;;;;;;;4956913;28;20026;-82
2024/03/14 03:25:14;;;;;;;5.53;3.75;;;;;;;;;;4959363;28;20042;-81
2024/03/14 03:28:00;;;;;;;6.78;4.45;;;;;;;;;;4955969;28;20035;-82
2024/03/14 03:30:45;;;;;;;12.50;3.97;;;;;;;;;;4955338;28;20092;-81
2024/03/14 03:33:31;;;;;;;6.30;3.60;;;;;;;;;;4956535;28;20022;-82
2024/03/14 03:36:16;;;;;;;7.20;3.40;;;;;;;;;;4955768;28;20015;-82
2024/03/14 03:39:03;;;;;;;7.65;4.15;;;;;;;;;;4956030;28;20030;-82
2024/03/14 03:41:49;;;;;;;8.00;3.90;;;;;;;;;;4955539;28;20018;-83
2024/03/14 03:44:34;;;;;;;8.85;3.42;;;;;;;;;;4947551;28;20025;-82
2024/03/14 03:47:20;;;;;;;7.82;3.80;;;;;;;;;;4953044;28;20067;-82
2024/03/14 03:50:10;;;;;;;8.10;4.10;;;;;;;;;;4950945;28;20026;-82
2024/03/14 03:52:55;;;;;;;7.68;4.43;;;;;;;;;;4954223;28;20478;-82
2024/03/14 03:55:40;;;;;;;8.45;4.57;;;;;;;;;;4953934;28;20529;-82
2024/03/14 03:58:25;;;;;;;7.28;3.72;;;;;;;;;;4962170;28;20437;-81
2024/03/14 04:01:12;;;;;;;9.98;3.88;;;;;;;;;;4959089;28;20466;-82
2024/03/14 04:03:57;;;;;;;5.93;3.35;;;;;;;;;;4960782;28;20035;-82
2024/03/14 04:06:42;;;;;;;5.30;3.75;;;;;;;;;;4960303;28;20092;-83
2024/03/14 04:09:27;;;;;;;5.97;3.78;;;;;;;;;;4956621;28;20085;-83
2024/03/14 04:12:14;;;;;;;6.85;4.05;;;;;;;;;;4960400;28;20077;-82
2024/03/14 04:15:00;;;;;;;7.13;4.45;;;;;;;;;;4959674;28;20105;-83
2024/03/14 04:17:45;;;;;;;5.85;4.05;;;;;;;;;;4956666;28;20228;-82
2024/03/14 04:20:33;;;;;;;6.60;3.80;;;;;;;;;;4957215;28;20027;-83
2024/03/14 04:23:19;;;;;;;6.90;3.90;;;;;;;;;;4959425;28;20023;-83
2024/03/14 04:26:06;;;;;;;6.05;3.85;;;;;;;;;;4961461;28;20367;-84
2024/03/14 04:28:51;;;;;;;7.00;4.03;;;;;;;;;;4958574;28;20493;-83
2024/03/14 04:31:36;;;;;;;7.78;3.88;;;;;;;;;;4971132;28;20037;-83
2024/03/14 04:34:21;;;;;;;7.15;4.22;;;;;;;;;;4952057;28;20035;-84
2024/03/14 04:37:07;;;;;;;8.23;4.97;;;;;;;;;;4959010;28;20035;-83
2024/03/14 04:39:52;;;;;;;10.00;5.10;;;;;;;;;;4957905;28;20196;-83
2024/03/14 04:42:53;;;;;;;5.93;3.47;;;;;;;;;;5157252;27;19971;-81
2024/03/14 04:45:40;;;;;;;7.28;4.35;;;;;;;;;;5138711;27;20026;-84
2024/03/14 04:48:25;;;;;;;6.53;4.70;;;;;;;;;;5141624;27;20523;-83
2024/03/14 04:51:11;;;;;;;8.70;5.38;;;;;;;;;;5140880;27;20042;-83
2024/03/14 04:53:57;;;;;;;9.50;4.53;;;;;;;;;;5142865;27;20039;-82
2024/03/14 04:56:42;;;;;;;5.25;3.78;;;;;;;;;;5140667;27;20031;-83
2024/03/14 04:59:27;;;;;;;8.13;4.22;;;;;;;;;;5138042;27;20086;-82
2024/03/14 05:02:14;;;;;;;9.07;5.43;;;;;;;;;;5143010;27;20046;-81
2024/03/14 05:04:59;;;;;;;6.30;3.58;;;;;;;;;;5133266;27;20101;-82
2024/03/14 05:07:44;;;;;;;10.60;4.03;;;;;;;;;;5135623;27;20027;-81
2024/03/14 05:10:31;;;;;;;6.15;4.13;;;;;;;;;;5143543;27;20030;-82
2024/03/14 05:13:19;;;;;;;8.73;5.57;;;;;;;;;;5130864;27;20080;-82
2024/03/14 05:16:05;;;;;;;8.93;5.88;;;;;;;;;;5122467;27;20055;-81
2024/03/14 05:18:50;;;;;;;10.05;6.53;;;;;;;;;;5131791;27;20019;-81
2024/03/14 05:21:35;;;;;;;13.55;7.05;;;;;;;;;;5133216;27;20042;-81
2024/03/14 05:24:21;;;;;;;10.70;7.00;;;;;;;;;;5122596;27;20369;-81
2024/03/14 05:27:06;;;;;;;11.88;7.80;;;;;;;;;;5131221;27;20031;-83
2024/03/14 05:29:51;;;;;;;11.55;5.78;;;;;;;;;;5124865;27;20019;-83
2024/03/14 05:32:36;;;;;;;11.40;7.55;;;;;;;;;;5124282;27;20054;-82
2024/03/14 05:35:22;;;;;;;11.18;7.20;;;;;;;;;;5133077;27;20484;-82
2024/03/14 05:38:08;;;;;;;9.95;5.97;;;;;;;;;;5126488;27;20031;-83
2024/03/14 05:40:54;;;;;;;12.93;7.18;;;;;;;;;;5130997;27;20047;-81
2024/03/14 05:43:39;;;;;;;10.18;7.28;;;;;;;;;;5131097;27;20023;-83
2024/03/14 05:46:26;;;;;;;11.35;7.00;;;;;;;;;;5131709;27;20512;-80
2024/03/14 05:49:11;;;;;;;11.10;7.55;;;;;;;;;;5125007;27;20038;-80
2024/03/14 05:51:57;;;;;;;12.63;7.35;;;;;;;;;;5116229;27;20038;-80
2024/03/14 05:54:42;;;;;;;12.95;7.28;;;;;;;;;;5108258;27;20241;-82
2024/03/14 05:57:28;;;;;;;9.65;6.40;;;;;;;;;;5111213;27;20034;-82
2024/03/14 06:00:14;;;;;;;11.07;7.57;;;;;;;;;;5109231;27;20082;-83
2024/03/14 06:02:59;;;;;;;10.57;6.55;;;;;;;;;;5117420;27;20077;-82
2024/03/14 06:05:44;;;;;;;11.60;7.45;;;;;;;;;;5110603;27;20505;-81
2024/03/14 06:08:29;;;;;;;11.48;6.88;;;;;;;;;;5114151;27;20034;-80
2024/03/14 06:11:15;;;;;;;9.48;6.45;;;;;;;;;;5112897;27;20029;-82
2024/03/14 06:14:03;;;;;;;11.55;7.15;;;;;;;;;;5111868;27;20031;-82
2024/03/14 06:16:49;;;;;;;13.85;7.68;;;;;;;;;;5129969;27;20029;-82
2024/03/14 06:19:34;;;;;;;12.13;7.38;;;;;;;;;;5130293;27;20439;-80
2024/03/14 06:22:19;;;;;;;13.18;7.30;;;;;;;;;;5123371;27;20051;-81
2024/03/14 06:25:07;;;;;;;13.93;8.25;;;;;;;;;;5117032;27;20067;-82
2024/03/14 06:27:52;;;;;;;14.00;8.90;;;;;;;;;;5122633;27;20030;-81
2024/03/14 06:31:07;;;;;;;13.15;9.00;;;;;;;;;;5111724;27;20030;-78
2024/03/14 06:33:52;;;;;;;12.50;8.38;;;;;;;;;;5115255;27;20033;-79
2024/03/14 06:36:38;;;;;;;13.45;8.48;;;;;;;;;;5138306;27;20026;-79
2024/03/14 06:39:25;;;;;;;15.98;9.38;;;;;;;;;;5120461;27;20034;-81
2024/03/14 06:42:15;;;;;;;15.02;9.52;;;;;;;;;;5125777;27;20040;-81
2024/03/14 06:45:03;;;;;;;14.10;9.32;;;;;;;;;;5123932;27;20039;-80
2024/03/14 06:47:49;;;;;;;16.60;10.88;;;;;;;;;;5108370;27;20077;-79
2024/03/14 06:50:34;;;;;;;15.77;10.23;;;;;;;;;;5108441;28;20028;-79
2024/03/14 06:53:19;;;;;;;15.15;10.73;;;;;;;;;;5116822;27;20015;-79
2024/03/14 06:56:08;;;;;;;14.18;9.60;;;;;;;;;;5110240;27;20031;-80
2024/03/14 06:58:54;;;;;;;15.43;10.68;;;;;;;;;;5125100;27;20091;-81
2024/03/14 07:01:40;;;;;;;13.00;8.57;;;;;;;;;;5120069;27;20031;-82
2024/03/14 07:04:27;;;;;;;14.45;9.18;;;;;;;;;;5117251;27;20015;-82
2024/03/14 07:07:13;;;;;;;16.88;9.88;;;;;;;;;;5117966;27;20034;-81
2024/03/14 07:09:58;;;;;;;13.45;8.02;;;;;;;;;;5115036;27;20019;-81
2024/03/14 07:12:45;;;;;;;14.85;9.60;;;;;;;;;;5115104;27;20038;-85
2024/03/14 07:15:31;;;;;;;15.15;9.73;;;;;;;;;;5117256;27;20389;-79
2024/03/14 07:18:16;;;;;;;16.08;10.18;;;;;;;;;;5106821;27;20015;-82
2024/03/14 07:21:02;;;;;;;14.55;10.38;;;;;;;;;;5110537;27;20027;-82
2024/03/14 07:23:47;;;;;;;14.48;9.52;;;;;;;;;;5113429;27;20114;-82
2024/03/14 07:26:36;;;;;;;17.63;9.20;;;;;;;;;;5113727;27;20027;-81
2024/03/14 07:29:22;;;;;;;14.20;8.93;;;;;;;;;;5107449;27;20080;-82
2024/03/14 07:32:07;;;;;;;26.25;9.40;;;;;;;;;;5119003;27;20413;-81
2024/03/14 07:34:53;;;;;;;13.93;9.50;;;;;;;;;;5109258;27;20035;-81
2024/03/14 07:37:38;;;;;;;15.25;9.75;;;;;;;;;;5117009;27;20041;-82
2024/03/14 07:44:03;;;;;;;13.50;7.85;;;;;;;;;;5080267;28;20047;-78
2024/03/14 07:46:49;;;;;;;15.75;9.38;;;;;;;;;;5118824;27;20047;-79
2024/03/14 07:49:35;;;;;;;13.20;9.05;;;;;;;;;;5113282;27;20103;-81
2024/03/14 07:52:20;;;;;;;14.00;8.57;;;;;;;;;;5110570;27;20030;-81
2024/03/14 07:55:07;;;;;;;14.65;9.43;;;;;;;;;;5120503;27;20041;-81
2024/03/14 07:57:52;;;;;;;13.75;8.48;;;;;;;;;;5115556;27;20050;-83
2024/03/14 08:00:40;;;;;;;10.90;7.60;;;;;;;;;;5108139;27;20030;-82
2024/03/14 08:03:28;;;;;;;11.68;7.90;;;;;;;;;;5116112;27;20106;-83
2024/03/14 08:06:18;;;;;;;11.63;7.90;;;;;;;;;;5118778;27;20084;-83
2024/03/14 08:09:04;;;;;;;;;;;;;;;;;;5097779;27;20119;-83
2024/03/14 08:11:49;;;;;;;10.25;6.30;;;;;;;;;;5111229;27;19953;-82
2024/03/14 08:14:35;;;;;;;9.13;6.28;;;;;;;;;;5110543;27;20031;-84
2024/03/14 08:17:20;;;;;;;11.18;6.55;;;;;;;;;;5113846;27;20393;-84
2024/03/14 08:20:07;;;;;;;8.93;6.10;;;;;;;;;;5117666;27;20023;-83
2024/03/14 08:22:54;;;;;;;9.50;6.15;;;;;;;;;;5117678;27;20339;-82
2024/03/14 08:25:41;;;;;;;9.85;6.25;;;;;;;;;;5113231;27;20032;-82
2024/03/14 08:28:29;;;;;;;8.52;5.15;;;;;;;;;;5095306;28;20019;-82
2024/03/14 08:31:17;;;;;;;9.00;4.93;;;;;;;;;;5119749;27;20160;-82
2024/03/14 08:34:05;;;;;;;8.07;4.90;;;;;;;;;;5110110;28;20032;-80
2024/03/14 08:36:50;;;;;;;6.82;4.72;;;;;;;;;;5115063;27;20039;-81
2024/03/14 08:39:36;;;;;;;8.20;4.68;;;;;;;;;;5112428;28;20024;-81
2024/03/14 08:42:31;;;;;;;8.75;5.25;;;;;;;;;;5107343;28;20039;-81
2024/03/14 08:45:16;;;;;;;7.22;4.50;;;;;;;;;;5108628;28;20485;-81
2024/03/14 08:48:07;;;;;;;7.50;4.97;;;;;;;;;;5112149;28;20023;-80
2024/03/14 08:50:52;;;;;;;7.00;4.95;;;;;;;;;;5116175;28;20031;-80
2024/03/14 08:54:07;;;;;;;7.30;4.65;;;;;;;;;;5116173;28;20088;-81
2024/03/14 08:56:43;;;;;;;7.22;4.10;;;;;;;;;;5113227;28;20027;-79
2024/03/14 08:59:29;;;;;;;7.90;4.65;;;;;;;;;;5108743;28;20027;-79
2024/03/14 09:02:14;;;;;;;8.07;4.65;;;;;;;;;;5113021;28;20101;-84
2024/03/14 09:05:00;;;;;;;9.80;5.47;;;;;;;;;;5115660;28;20142;-87
2024/03/14 09:07:48;;;;;;;9.35;4.78;;;;;;;;;;5111360;28;20016;-83
2024/03/14 09:10:33;;;;;;;5.55;3.83;;;;;;;;;;5115786;28;20031;-81
2024/03/14 09:13:19;;;;;;;8.57;4.82;;;;;;;;;;5110031;28;20458;-85
2024/03/14 09:16:06;;;;;;;5.70;3.78;;;;;;;;;;5110368;28;20112;-79
2024/03/14 09:18:57;;;;;;;7.43;4.25;;;;;;;;;;5113335;28;20470;-80
2024/03/14 09:21:42;;;;;;;6.93;4.20;;;;;;;;;;5113123;28;20050;-90
2024/03/14 09:24:27;;;;;;;6.28;3.70;;;;;;;;;;5108531;28;20046;-89
2024/03/14 09:27:13;;;;;;;5.40;3.10;;;;;;;;;;5126981;27;20551;-89
2024/03/14 09:29:58;;;;;;;5.45;3.15;;;;;;;;;;5123372;27;20055;-84
2024/03/14 09:32:45;;;;;;;5.28;3.22;;;;;;;;;;5124285;27;20573;-84
2024/03/14 09:35:31;;;;;;;4.25;2.80;;;;;;;;;;5124246;27;20034;-84
2024/03/14 09:38:17;;;;;;;4.95;3.38;;;;;;;;;;5115805;27;20033;-84
2024/03/14 09:41:02;;;;;;;3.10;2.35;;;;;;;;;;5117676;27;20035;-84
2024/03/14 09:43:47;;;;;;;4.47;2.85;;;;;;;;;;5114417;27;20043;-84
2024/03/14 09:46:34;;;;;;;4.43;2.70;;;;;;;;;;5113719;27;20027;-84
2024/03/14 09:49:19;;;;;;;4.53;2.58;;;;;;;;;;5115759;27;20038;-83
2024/03/14 09:52:05;;;;;;;4.68;2.58;;;;;;;;;;5112697;27;20484;-83
2024/03/14 09:54:51;;;;;;;3.35;2.40;;;;;;;;;;5108840;27;20653;-82
2024/03/14 09:57:36;;;;;;;4.05;2.42;;;;;;;;;;5112108;27;20030;-84
2024/03/14 10:00:24;;;;;;;3.78;2.67;;;;;;;;;;5115155;27;20084;-80
2024/03/14 10:03:11;;;;;;;3.08;1.88;;;;;;;;;;5110871;27;20139;-84
2024/03/14 10:05:57;;;;;;;3.13;2.00;;;;;;;;;;5111477;27;20398;-85
2024/03/14 10:08:48;;;;;;;2.83;1.65;;;;;;;;;;5116300;27;20030;-83
2024/03/14 10:11:33;;;;;;;2.30;1.70;;;;;;;;;;5109585;27;20553;-84
2024/03/14 10:14:22;;;;;;;3.10;1.65;;;;;;;;;;5115120;27;20188;-84
2024/03/14 10:17:07;;;;;;;3.20;2.45;;;;;;;;;;5117074;27;20079;-83
2024/03/14 10:19:52;;;;;;;2.83;2.05;;;;;;;;;;5112952;27;20083;-83
2024/03/14 10:22:38;;;;;;;2.35;1.90;;;;;;;;;;5116129;27;20493;-83
2024/03/14 10:25:23;;;;;;;3.85;1.67;;;;;;;;;;5115558;27;20370;-82
2024/03/14 10:28:17;;;;;;;1.27;1.17;;;;;;;;;;5110928;27;20026;-84
2024/03/14 10:31:31;;;;;;;1.83;1.58;;;;;;;;;;5113064;27;20019;-82
2024/03/14 10:34:16;;;;;;;1.70;1.60;;;;;;;;;;5118386;27;20066;-83
2024/03/14 10:37:01;;;;;;;1.63;1.50;;;;;;;;;;5113782;27;20034;-82
2024/03/14 10:39:54;;;;;;;1.33;1.05;;;;;;;;;;5111644;27;20056;-83
2024/03/14 10:42:41;;;;;;;1.67;1.20;;;;;;;;;;5116100;27;20105;-84
2024/03/14 10:45:27;;;;;;;1.20;1.10;;;;;;;;;;5114027;27;20510;-83
2024/03/14 10:48:13;;;;;;;1.67;1.15;;;;;;;;;;5113134;27;20072;-85
2024/03/14 10:50:58;;;;;;;2.70;1.08;;;;;;;;;;5107853;27;20062;-85
2024/03/14 10:53:45;;;;;;;3.17;1.20;;;;;;;;;;5111322;27;20124;-84
2024/03/14 10:56:31;;;;;;;2.50;1.30;;;;;;;;;;5118459;27;20026;-81
2024/03/14 10:59:16;;;;;;;3.03;1.50;;;;;;;;;;5121920;27;20473;-84
2024/03/14 11:02:03;;;;;;;2.80;1.90;;;;;;;;;;5114573;27;20446;-83
2024/03/14 11:04:50;;;;;;;1.83;1.30;;;;;;;;;;5111264;27;20020;-83
2024/03/14 11:07:35;;;;;;;3.38;1.35;;;;;;;;;;5112116;27;20029;-84
2024/03/14 11:10:28;;;;;;;3.00;1.90;;;;;;;;;;5116779;27;20023;-83
2024/03/14 11:13:16;;;;;;;2.38;1.33;;;;;;;;;;5112972;27;20038;-85
2024/03/14 11:16:01;;;;;;;1.40;1.30;;;;;;;;;;5138297;27;20259;-85
2024/03/14 11:18:52;;;;;;;4.15;1.73;;;;;;;;;;5132909;27;20016;-83
2024/03/14 11:21:38;;;;;;;1.70;1.30;;;;;;;;;;5143102;27;20012;-83
2024/03/14 11:24:29;;;;;;;1.77;1.13;;;;;;;;;;5132054;27;20385;-80
2024/03/14 11:27:22;;;;;;;2.08;1.63;;;;;;;;;;5112195;27;20093;-79
2024/03/14 11:30:15;;;;;;;1.92;1.20;;;;;;;;;;5120766;27;20214;-79
2024/03/14 11:33:06;;;;;;;1.92;1.35;;;;;;;;;;5115321;27;20035;-79
2024/03/14 11:35:53;;;;;;;3.25;1.50;;;;;;;;;;5107207;27;20035;-77
2024/03/14 11:38:40;;;;;;;1.48;1.15;;;;;;;;;;5114751;27;20026;-80
2024/03/14 11:41:27;;;;;;;3.28;2.05;;;;;;;;;;5126573;27;20552;-80
2024/03/14 11:44:21;;;;;;;3.05;1.70;;;;;;;;;;5110331;27;20381;-80
2024/03/14 11:47:07;;;;;;;2.03;1.08;;;;;;;;;;5117521;27;20042;-80
2024/03/14 11:49:55;;;;;;;1.83;1.10;;;;;;;;;;5109162;27;20042;-80
2024/03/14 11:52:41;;;;;;;2.28;0.90;;;;;;;;;;5113518;27;20035;-80
2024/03/14 11:55:29;;;;;;;2.17;1.10;;;;;;;;;;5117645;27;20098;-81
2024/03/14 11:58:15;;;;;;;2.25;1.10;;;;;;;;;;5113349;27;20031;-79
2024/03/14 12:01:00;;;;;;;1.02;0.85;;;;;;;;;;5112584;27;20032;-79
2024/03/14 12:03:46;;;;;;;1.00;0.80;;;;;;;;;;5115684;27;20031;-79
2024/03/14 12:06:35;;;;;;;1.20;0.90;;;;;;;;;;5113653;27;20016;-79
2024/03/14 12:09:23;;;;;;;0.93;0.80;;;;;;;;;;5116706;27;20051;-78
2024/03/14 12:12:09;;;;;;;1.20;0.80;;;;;;;;;;5106563;27;20094;-79
2024/03/14 12:14:55;;;;;;;1.50;1.00;;;;;;;;;;5114674;27;20048;-80
2024/03/14 12:17:40;;;;;;;1.75;1.00;;;;;;;;;;5107523;27;20114;-78
2024/03/14 12:20:25;;;;;;;1.25;0.90;;;;;;;;;;5108442;27;20043;-78
2024/03/14 12:23:11;;;;;;;1.08;0.80;;;;;;;;;;5108025;27;20114;-79
2024/03/14 12:26:02;;;;;;;0.70;0.70;;;;;;;;;;5113516;27;20120;-80
2024/03/14 12:28:48;;;;;;;0.70;0.70;;;;;;;;;;5112253;27;20438;-80
2024/03/14 12:31:34;;;;;;;0.95;0.82;;;;;;;;;;5111031;27;20038;-79
2024/03/14 12:34:20;;;;;;;1.00;0.85;;;;;;;;;;5112824;27;20027;-79
2024/03/14 12:37:09;;;;;;;1.42;0.95;;;;;;;;;;5111054;27;20031;-79
2024/03/14 12:39:55;;;;;;;1.85;1.08;;;;;;;;;;5107360;27;20024;-78
2024/03/14 12:42:41;;;;;;;1.08;0.93;;;;;;;;;;5112175;28;20154;-77
2024/03/14 12:45:26;;;;;;;1.02;0.90;;;;;;;;;;5115519;28;20107;-78
2024/03/14 12:48:16;;;;;;;1.25;0.95;;;;;;;;;;5111092;28;20119;-78
2024/03/14 12:51:08;;;;;;;1.58;1.08;;;;;;;;;;5115266;28;20096;-78
2024/03/14 12:53:55;;;;;;;1.42;1.00;;;;;;;;;;5116709;28;20075;-81
2024/03/14 12:56:41;;;;;;;2.05;1.10;;;;;;;;;;5105754;28;20043;-80
2024/03/14 12:59:28;;;;;;;4.43;1.27;;;;;;;;;;5110659;28;20373;-81
2024/03/14 13:02:18;;;;;;;1.10;0.93;;;;;;;;;;5110307;27;20027;-80
2024/03/14 13:05:07;;;;;;;2.20;1.10;;;;;;;;;;5105361;27;20012;-79
2024/03/14 13:08:13;;;;;;;4.68;1.20;;;;;;;;;;5110977;27;20019;-80
2024/03/14 13:11:06;;;;;;;1.60;1.27;;;;;;;;;;5105513;27;20036;-79
2024/03/14 13:14:08;;;;;;;1.60;1.50;;;;;;;;;;5113967;27;20027;-80
2024/03/14 13:17:10;;;;;;;3.00;1.55;;;;;;;;;;5118432;27;20019;-79
2024/03/14 13:19:59;;;;;;;2.08;1.33;;;;;;;;;;5115588;27;20023;-79
2024/03/14 13:22:48;;;;;;;;;;;;;;;;;;5111080;27;20457;-79
2024/03/14 13:25:36;;;;;;;2.20;1.30;;;;;;;;;;5111000;27;19908;-79
2024/03/14 13:28:23;;;;;;;1.80;1.00;;;;;;;;;;5115419;27;20381;-80
2024/03/14 13:31:08;;;;;;;1.45;1.17;;;;;;;;;;5111131;27;20316;-80
2024/03/14 13:33:54;;;;;;;2.42;1.42;;;;;;;;;;5114841;27;20397;-80
2024/03/14 13:36:40;;;;;;;1.13;0.98;;;;;;;;;;5111836;27;20063;-81
2024/03/14 13:39:26;;;;;;;1.65;1.20;;;;;;;;;;5112752;27;20363;-81
2024/03/14 13:42:12;;;;;;;1.63;1.30;;;;;;;;;;5117347;27;20152;-82
2024/03/14 13:44:57;;;;;;;1.60;0.80;;;;;;;;;;5108932;27;20037;-80
2024/03/14 13:47:45;;;;;;;1.90;1.42;;;;;;;;;;5109692;27;20673;-80
2024/03/14 13:50:31;;;;;;;1.02;0.90;;;;;;;;;;5120664;27;20106;-80
2024/03/14 13:53:17;;;;;;;1.33;1.10;;;;;;;;;;5114121;27;20030;-79
2024/03/14 13:56:03;;;;;;;2.75;1.48;;;;;;;;;;5111741;27;20016;-79
2024/03/14 13:58:49;;;;;;;4.55;1.02;;;;;;;;;;5114342;27;20569;-79
2024/03/14 14:01:34;;;;;;;0.93;0.82;;;;;;;;;;5110351;27;20403;-79
2024/03/14 14:04:20;;;;;;;2.80;1.27;;;;;;;;;;5112315;27;20016;-79
2024/03/14 14:07:05;;;;;;;1.88;0.93;;;;;;;;;;5113072;27;20091;-81
2024/03/14 14:09:54;;;;;;;5.15;1.10;;;;;;;;;;5114099;27;20384;-82
2024/03/14 14:12:41;;;;;;;1.52;1.10;;;;;;;;;;5116547;27;20027;-81
2024/03/14 14:15:28;;;;;;;1.10;0.93;;;;;;;;;;5112557;27;20065;-80
2024/03/14 14:18:16;;;;;;;1.67;1.20;;;;;;;;;;5107600;28;20481;-81
2024/03/14 14:21:01;;;;;;;1.27;0.93;;;;;;;;;;5107526;27;20049;-82
2024/03/14 14:23:46;;;;;;;2.85;1.25;;;;;;;;;;5118285;27;21248;-82
2024/03/14 14:26:32;;;;;;;1.70;0.90;;;;;;;;;;5117116;27;20024;-82
2024/03/14 14:29:18;;;;;;;2.00;0.98;;;;;;;;;;5114948;27;20027;-81
2024/03/14 14:32:04;;;;;;;0.95;0.90;;;;;;;;;;5122139;27;20118;-82
2024/03/14 14:34:49;;;;;;;1.55;0.90;;;;;;;;;;5120171;27;20031;-81
2024/03/14 14:37:34;;;;;;;1.13;0.90;;;;;;;;;;5134875;27;20370;-80
2024/03/14 14:40:21;;;;;;;1.00;0.90;;;;;;;;;;5141568;27;20022;-80
2024/03/14 14:43:07;;;;;;;3.00;0.85;;;;;;;;;;5127334;27;20042;-81
2024/03/14 14:45:54;;;;;;;1.67;1.00;;;;;;;;;;5114945;27;20204;-81
2024/03/14 14:48:40;;;;;;;2.97;1.23;;;;;;;;;;5121566;27;20023;-81
2024/03/14 14:51:25;;;;;;;1.92;1.13;;;;;;;;;;5105720;27;20027;-79
2024/03/14 14:54:10;;;;;;;1.48;0.70;;;;;;;;;;5118780;27;20456;-79
2024/03/14 14:56:55;;;;;;;1.38;0.98;;;;;;;;;;5107206;27;20554;-78
2024/03/14 14:59:40;;;;;;;1.50;1.10;;;;;;;;;;5114314;27;20033;-80
2024/03/14 15:02:26;;;;;;;1.10;1.00;;;;;;;;;;5099636;27;20027;-79
2024/03/14 15:05:14;;;;;;;1.00;0.93;;;;;;;;;;5112744;27;20066;-85
2024/03/14 15:08:00;;;;;;;1.45;0.90;;;;;;;;;;5115177;27;20026;-80
2024/03/14 15:10:45;;;;;;;1.13;0.95;;;;;;;;;;5112533;27;20084;-81
2024/03/14 15:13:33;;;;;;;3.75;0.95;;;;;;;;;;5109025;27;20106;-79
2024/03/14 15:16:19;;;;;;;3.47;0.90;;;;;;;;;;5114546;27;20015;-79
2024/03/14 15:19:04;;;;;;;3.38;1.10;;;;;;;;;;5116374;27;20015;-78
2024/03/14 15:21:49;;;;;;;1.42;1.02;;;;;;;;;;5121141;27;20031;-81
2024/03/14 15:24:38;;;;;;;1.08;1.00;;;;;;;;;;5115152;27;20033;-82
2024/03/14 15:27:24;;;;;;;1.10;1.00;;;;;;;;;;5127015;27;20018;-80
2024/03/14 15:30:09;;;;;;;2.28;1.13;;;;;;;;;;5128078;27;20031;-81
2024/03/14 15:32:57;;;;;;;2.55;1.08;;;;;;;;;;5111058;27;20072;-81
2024/03/14 15:35:43;;;;;;;2.33;1.30;;;;;;;;;;5108176;27;20102;-82
2024/03/14 15:38:28;;;;;;;3.15;1.52;;;;;;;;;;5116004;27;20049;-81
2024/03/14 15:41:13;;;;;;;3.65;1.70;;;;;;;;;;5111329;27;20031;-82
2024/03/14 15:43:59;;;;;;;3.53;1.70;;;;;;;;;;5120791;27;20063;-81
2024/03/14 15:46:44;;;;;;;2.28;1.20;;;;;;;;;;5116411;27;20027;-82
2024/03/14 15:49:30;;;;;;;2.10;1.35;;;;;;;;;;5108762;27;20043;-79
2024/03/14 15:52:16;;;;;;;2.58;1.50;;;;;;;;;;5116145;27;20095;-79
2024/03/14 15:55:02;;;;;;;3.65;1.40;;;;;;;;;;5112646;27;20027;-79
2024/03/14 15:57:47;;;;;;;3.28;1.52;;;;;;;;;;5093307;28;20055;-79
2024/03/14 16:00:33;;;;;;;2.78;1.10;;;;;;;;;;5114426;27;20031;-80
2024/03/14 16:03:19;;;;;;;1.70;1.02;;;;;;;;;;5108750;27;20397;-82
2024/03/14 16:06:04;;;;;;;3.63;1.40;;;;;;;;;;5120813;27;20027;-82
2024/03/14 16:08:51;;;;;;;2.55;1.10;;;;;;;;;;5107749;27;20097;-81
2024/03/14 16:11:37;;;;;;;1.70;1.00;;;;;;;;;;5111484;27;20031;-81
2024/03/14 16:14:23;;;;;;;3.90;1.00;;;;;;;;;;5106056;27;20489;-82
2024/03/14 16:17:09;;;;;;;1.92;1.30;;;;;;;;;;5114709;27;20026;-81
2024/03/14 16:19:54;;;;;;;2.85;1.33;;;;;;;;;;5109902;27;20036;-81
2024/03/14 16:22:40;;;;;;;2.88;1.10;;;;;;;;;;5107807;27;20046;-81
2024/03/14 16:25:27;;;;;;;2.35;1.00;;;;;;;;;;5104337;27;20092;-82
2024/03/14 16:28:12;;;;;;;1.50;1.13;;;;;;;;;;5107323;27;20036;-82
2024/03/14 16:30:59;;;;;;;7.72;1.35;;;;;;;;;;5107931;27;20059;-82
2024/03/14 16:33:47;;;;;;;3.92;1.48;;;;;;;;;;5122987;27;20079;-82
2024/03/14 16:36:33;;;;;;;1.98;1.15;;;;;;;;;;5114499;27;20039;-83
2024/03/14 16:39:18;;;;;;;2.20;1.15;;;;;;;;;;5118568;27;20027;-84